Portada
METAR-TAF:

METAR-TAF

Aeropuertos :

Aeropuerto de Sønderborg

Sønderborg, Dinamarca

latitud: 54-58N, longitud: 009-47E, altitud: 7 m

Observación

El informe se hizo hace 12 horas y 32 minutos, a las 11:20 UTC
Viento 6 kt del norte-noroeste, variando entre noroeste y norte
Temperatura 7°C
Humedad 36%
Presión 1031 hPa
Visibilidad 10 km o más
sin nubes por debajo de 1500 m y sin presencia de cumulonimbus.

METAR: EKSB 311120Z 34006KT 310V010 CAVOK 07/M07 Q1031

Hora: 01:52 (23:52 UTC)

Pronóstico

El informe se hizo hace 14 horas y 58 minutos, a las 08:54 UTC
Pronóstico válido del 31 a las 09 UTC al 31 a las 13 UTC
Viento 6 kt del noroeste
Visibilidad 10 km o más
sin nubes por debajo de 1500 m y sin presencia de cumulonimbus.

TAF: EKSB 310854Z 3109/3113 31006KT CAVOK

Observaciones y pronósticos meteorológicos de más de 4000 aeropuertos (mensajes METAR y TAF).

Los puntos amarillos y rojos representan las estaciones disponibles.

Ponga el ratón en el punto deseado para ver el nombre de la estación.

Haga clic para ver las observaciones y los pronósticos meteorológicos.

Para cambiar el mapa : haga clic en los botones verdes con una cruz de color negro para hacer un zoom, en el botón verde con un guión para alejar o en las flechas verdes para mapas adyacentes.


METAR-TAF: